sensor_id;sensor_type;location;lat;lon;timestamp;P1;durP1;ratioP1;P2;durP2;ratioP2
34900;SDS011;21112;51.976;5.660;2023-06-24T00:02:21;7.63;;;3.47;;
34900;SDS011;21112;51.976;5.660;2023-06-24T00:04:49;6.35;;;3.47;;
34900;SDS011;21112;51.976;5.660;2023-06-24T00:07:15;9.38;;;3.80;;
34900;SDS011;21112;51.976;5.660;2023-06-24T00:09:42;8.07;;;4.00;;
34900;SDS011;21112;51.976;5.660;2023-06-24T00:12:10;7.20;;;3.60;;
34900;SDS011;21112;51.976;5.660;2023-06-24T00:14:44;8.57;;;3.85;;
34900;SDS011;21112;51.976;5.660;2023-06-24T00:17:11;6.05;;;3.38;;
34900;SDS011;21112;51.976;5.660;2023-06-24T00:19:38;7.32;;;3.58;;
34900;SDS011;21112;51.976;5.660;2023-06-24T00:22:04;6.85;;;3.40;;
34900;SDS011;21112;51.976;5.660;2023-06-24T00:24:31;6.70;;;3.80;;
34900;SDS011;21112;51.976;5.660;2023-06-24T00:26:57;11.40;;;3.38;;
34900;SDS011;21112;51.976;5.660;2023-06-24T00:29:25;7.10;;;3.72;;
34900;SDS011;21112;51.976;5.660;2023-06-24T00:31:51;6.13;;;3.28;;
34900;SDS011;21112;51.976;5.660;2023-06-24T00:34:18;7.68;;;3.22;;
34900;SDS011;21112;51.976;5.660;2023-06-24T00:36:45;9.90;;;3.50;;
34900;SDS011;21112;51.976;5.660;2023-06-24T00:39:12;7.30;;;3.63;;
34900;SDS011;21112;51.976;5.660;2023-06-24T00:41:39;8.77;;;3.85;;
34900;SDS011;21112;51.976;5.660;2023-06-24T00:44:05;7.15;;;3.78;;
34900;SDS011;21112;51.976;5.660;2023-06-24T00:46:33;7.40;;;3.75;;
34900;SDS011;21112;51.976;5.660;2023-06-24T00:49:00;6.85;;;3.92;;
34900;SDS011;21112;51.976;5.660;2023-06-24T00:51:28;6.40;;;3.10;;
34900;SDS011;21112;51.976;5.660;2023-06-24T00:53:55;6.88;;;3.83;;
34900;SDS011;21112;51.976;5.660;2023-06-24T00:56:22;12.68;;;5.05;;
34900;SDS011;21112;51.976;5.660;2023-06-24T00:58:50;8.63;;;4.47;;
34900;SDS011;21112;51.976;5.660;2023-06-24T01:01:17;13.43;;;5.20;;
34900;SDS011;21112;51.976;5.660;2023-06-24T01:03:45;15.07;;;6.18;;
34900;SDS011;21112;51.976;5.660;2023-06-24T01:06:13;8.48;;;4.78;;
34900;SDS011;21112;51.976;5.660;2023-06-24T01:08:40;9.90;;;5.03;;
34900;SDS011;21112;51.976;5.660;2023-06-24T01:11:06;9.45;;;5.22;;
34900;SDS011;21112;51.976;5.660;2023-06-24T01:13:33;11.52;;;5.32;;
34900;SDS011;21112;51.976;5.660;2023-06-24T01:16:00;10.88;;;5.30;;
34900;SDS011;21112;51.976;5.660;2023-06-24T01:18:30;11.70;;;5.40;;
34900;SDS011;21112;51.976;5.660;2023-06-24T01:21:01;10.18;;;5.40;;
34900;SDS011;21112;51.976;5.660;2023-06-24T01:23:41;10.30;;;5.38;;
34900;SDS011;21112;51.976;5.660;2023-06-24T01:26:14;11.05;;;5.15;;
34900;SDS011;21112;51.976;5.660;2023-06-24T01:28:51;10.57;;;5.72;;
34900;SDS011;21112;51.976;5.660;2023-06-24T01:31:26;10.15;;;5.50;;
34900;SDS011;21112;51.976;5.660;2023-06-24T01:33:56;12.57;;;6.15;;
34900;SDS011;21112;51.976;5.660;2023-06-24T01:36:25;11.05;;;5.93;;
34900;SDS011;21112;51.976;5.660;2023-06-24T01:38:52;13.40;;;6.05;;
34900;SDS011;21112;51.976;5.660;2023-06-24T01:41:21;10.80;;;6.13;;
34900;SDS011;21112;51.976;5.660;2023-06-24T01:43:48;10.20;;;5.50;;
34900;SDS011;21112;51.976;5.660;2023-06-24T01:46:15;11.40;;;5.47;;
34900;SDS011;21112;51.976;5.660;2023-06-24T01:48:44;17.63;;;5.55;;
34900;SDS011;21112;51.976;5.660;2023-06-24T01:51:13;10.07;;;5.55;;
34900;SDS011;21112;51.976;5.660;2023-06-24T01:53:42;11.88;;;5.47;;
34900;SDS011;21112;51.976;5.660;2023-06-24T01:56:08;12.20;;;5.37;;
34900;SDS011;21112;51.976;5.660;2023-06-24T01:58:37;12.00;;;5.50;;
34900;SDS011;21112;51.976;5.660;2023-06-24T02:01:04;10.32;;;5.22;;
34900;SDS011;21112;51.976;5.660;2023-06-24T02:03:31;10.18;;;5.15;;
34900;SDS011;21112;51.976;5.660;2023-06-24T02:05:59;15.25;;;5.80;;
34900;SDS011;21112;51.976;5.660;2023-06-24T02:08:29;13.13;;;4.88;;
34900;SDS011;21112;51.976;5.660;2023-06-24T02:10:56;11.68;;;5.45;;
34900;SDS011;21112;51.976;5.660;2023-06-24T02:13:24;10.23;;;5.70;;
34900;SDS011;21112;51.976;5.660;2023-06-24T02:15:50;9.90;;;5.88;;
34900;SDS011;21112;51.976;5.660;2023-06-24T02:18:18;9.57;;;5.28;;
34900;SDS011;21112;51.976;5.660;2023-06-24T02:20:45;12.23;;;5.57;;
34900;SDS011;21112;51.976;5.660;2023-06-24T02:23:13;9.45;;;5.65;;
34900;SDS011;21112;51.976;5.660;2023-06-24T02:25:40;12.25;;;5.78;;
34900;SDS011;21112;51.976;5.660;2023-06-24T02:28:07;10.38;;;5.53;;
34900;SDS011;21112;51.976;5.660;2023-06-24T02:30:34;12.43;;;5.47;;
34900;SDS011;21112;51.976;5.660;2023-06-24T02:33:01;11.68;;;6.32;;
34900;SDS011;21112;51.976;5.660;2023-06-24T02:35:27;15.80;;;5.95;;
34900;SDS011;21112;51.976;5.660;2023-06-24T02:37:54;12.43;;;6.15;;
34900;SDS011;21112;51.976;5.660;2023-06-24T02:40:22;11.60;;;5.75;;
34900;SDS011;21112;51.976;5.660;2023-06-24T02:42:48;15.63;;;5.68;;
34900;SDS011;21112;51.976;5.660;2023-06-24T02:45:15;12.10;;;5.82;;
34900;SDS011;21112;51.976;5.660;2023-06-24T02:47:42;14.32;;;5.43;;
34900;SDS011;21112;51.976;5.660;2023-06-24T02:50:10;12.88;;;6.13;;
34900;SDS011;21112;51.976;5.660;2023-06-24T02:52:36;14.35;;;6.15;;
34900;SDS011;21112;51.976;5.660;2023-06-24T02:55:04;10.77;;;5.45;;
34900;SDS011;21112;51.976;5.660;2023-06-24T02:57:34;11.80;;;5.55;;
34900;SDS011;21112;51.976;5.660;2023-06-24T03:02:29;12.32;;;4.97;;
34900;SDS011;21112;51.976;5.660;2023-06-24T03:04:55;11.98;;;5.45;;
34900;SDS011;21112;51.976;5.660;2023-06-24T03:07:23;11.52;;;5.25;;
34900;SDS011;21112;51.976;5.660;2023-06-24T03:09:50;11.45;;;6.00;;
34900;SDS011;21112;51.976;5.660;2023-06-24T03:12:16;11.23;;;5.60;;
34900;SDS011;21112;51.976;5.660;2023-06-24T03:14:44;17.33;;;5.85;;
34900;SDS011;21112;51.976;5.660;2023-06-24T03:17:11;14.13;;;5.65;;
34900;SDS011;21112;51.976;5.660;2023-06-24T03:19:38;11.73;;;5.55;;
34900;SDS011;21112;51.976;5.660;2023-06-24T03:22:04;10.90;;;5.68;;
34900;SDS011;21112;51.976;5.660;2023-06-24T03:24:31;9.73;;;5.40;;
34900;SDS011;21112;51.976;5.660;2023-06-24T03:26:57;10.07;;;5.35;;
34900;SDS011;21112;51.976;5.660;2023-06-24T03:29:24;11.25;;;5.68;;
34900;SDS011;21112;51.976;5.660;2023-06-24T03:31:51;10.63;;;5.55;;
34900;SDS011;21112;51.976;5.660;2023-06-24T03:34:18;9.98;;;5.05;;
34900;SDS011;21112;51.976;5.660;2023-06-24T03:36:44;10.02;;;5.40;;
34900;SDS011;21112;51.976;5.660;2023-06-24T03:39:11;11.98;;;5.82;;
34900;SDS011;21112;51.976;5.660;2023-06-24T03:41:40;10.13;;;5.68;;
34900;SDS011;21112;51.976;5.660;2023-06-24T03:44:06;11.18;;;5.10;;
34900;SDS011;21112;51.976;5.660;2023-06-24T03:46:33;10.57;;;5.43;;
34900;SDS011;21112;51.976;5.660;2023-06-24T03:49:01;11.77;;;5.90;;
34900;SDS011;21112;51.976;5.660;2023-06-24T03:51:28;9.23;;;5.07;;
34900;SDS011;21112;51.976;5.660;2023-06-24T03:53:54;10.20;;;5.28;;
34900;SDS011;21112;51.976;5.660;2023-06-24T03:56:21;12.15;;;5.78;;
34900;SDS011;21112;51.976;5.660;2023-06-24T03:58:47;11.77;;;5.70;;
34900;SDS011;21112;51.976;5.660;2023-06-24T04:01:14;12.77;;;5.65;;
34900;SDS011;21112;51.976;5.660;2023-06-24T04:03:42;11.65;;;5.55;;
34900;SDS011;21112;51.976;5.660;2023-06-24T04:06:10;10.57;;;5.10;;
34900;SDS011;21112;51.976;5.660;2023-06-24T04:08:37;12.32;;;5.25;;
34900;SDS011;21112;51.976;5.660;2023-06-24T04:11:05;11.48;;;5.10;;
34900;SDS011;21112;51.976;5.660;2023-06-24T04:13:34;10.52;;;5.40;;
34900;SDS011;21112;51.976;5.660;2023-06-24T04:16:00;11.25;;;5.75;;
34900;SDS011;21112;51.976;5.660;2023-06-24T04:18:27;10.65;;;5.22;;
34900;SDS011;21112;51.976;5.660;2023-06-24T04:20:54;11.75;;;5.50;;
34900;SDS011;21112;51.976;5.660;2023-06-24T04:23:23;13.07;;;5.63;;
34900;SDS011;21112;51.976;5.660;2023-06-24T04:25:50;10.68;;;5.65;;
34900;SDS011;21112;51.976;5.660;2023-06-24T04:28:16;13.32;;;6.25;;
34900;SDS011;21112;51.976;5.660;2023-06-24T04:30:44;11.80;;;5.70;;
34900;SDS011;21112;51.976;5.660;2023-06-24T04:33:11;11.95;;;5.82;;
34900;SDS011;21112;51.976;5.660;2023-06-24T04:35:37;11.23;;;5.78;;
34900;SDS011;21112;51.976;5.660;2023-06-24T04:38:04;10.93;;;6.03;;
34900;SDS011;21112;51.976;5.660;2023-06-24T04:40:32;13.52;;;5.95;;
34900;SDS011;21112;51.976;5.660;2023-06-24T04:42:58;10.82;;;5.38;;
34900;SDS011;21112;51.976;5.660;2023-06-24T04:45:24;13.55;;;5.93;;
34900;SDS011;21112;51.976;5.660;2023-06-24T04:50:18;12.75;;;6.20;;
34900;SDS011;21112;51.976;5.660;2023-06-24T04:52:44;13.73;;;6.03;;
34900;SDS011;21112;51.976;5.660;2023-06-24T04:55:11;11.60;;;5.80;;
34900;SDS011;21112;51.976;5.660;2023-06-24T04:57:38;10.10;;;5.53;;
34900;SDS011;21112;51.976;5.660;2023-06-24T05:00:08;11.15;;;5.35;;
34900;SDS011;21112;51.976;5.660;2023-06-24T05:02:34;11.73;;;5.75;;
34900;SDS011;21112;51.976;5.660;2023-06-24T05:05:01;10.30;;;4.95;;
34900;SDS011;21112;51.976;5.660;2023-06-24T05:07:27;10.90;;;4.68;;
34900;SDS011;21112;51.976;5.660;2023-06-24T05:09:55;13.13;;;5.20;;
34900;SDS011;21112;51.976;5.660;2023-06-24T05:12:21;11.75;;;3.92;;
34900;SDS011;21112;51.976;5.660;2023-06-24T05:14:50;11.18;;;4.03;;
34900;SDS011;21112;51.976;5.660;2023-06-24T05:17:18;32.40;;;17.50;;
34900;SDS011;21112;51.976;5.660;2023-06-24T05:19:44;14.57;;;6.93;;
34900;SDS011;21112;51.976;5.660;2023-06-24T05:22:11;8.93;;;4.25;;
34900;SDS011;21112;51.976;5.660;2023-06-24T05:24:37;9.55;;;4.15;;
34900;SDS011;21112;51.976;5.660;2023-06-24T05:27:04;9.80;;;4.50;;
34900;SDS011;21112;51.976;5.660;2023-06-24T05:29:33;9.85;;;4.25;;
34900;SDS011;21112;51.976;5.660;2023-06-24T05:32:01;8.40;;;4.28;;
34900;SDS011;21112;51.976;5.660;2023-06-24T05:34:28;9.27;;;4.15;;
34900;SDS011;21112;51.976;5.660;2023-06-24T05:36:55;9.40;;;4.50;;
34900;SDS011;21112;51.976;5.660;2023-06-24T05:39:21;9.90;;;4.43;;
34900;SDS011;21112;51.976;5.660;2023-06-24T05:41:48;15.77;;;5.15;;
34900;SDS011;21112;51.976;5.660;2023-06-24T05:44:15;10.45;;;4.38;;
34900;SDS011;21112;51.976;5.660;2023-06-24T05:46:43;11.52;;;5.50;;
34900;SDS011;21112;51.976;5.660;2023-06-24T05:49:11;13.10;;;4.43;;
34900;SDS011;21112;51.976;5.660;2023-06-24T05:51:37;9.30;;;4.45;;
34900;SDS011;21112;51.976;5.660;2023-06-24T05:54:03;12.52;;;5.32;;
34900;SDS011;21112;51.976;5.660;2023-06-24T05:56:30;10.15;;;5.13;;
34900;SDS011;21112;51.976;5.660;2023-06-24T05:58:57;11.32;;;3.78;;
34900;SDS011;21112;51.976;5.660;2023-06-24T06:01:24;7.95;;;4.00;;
34900;SDS011;21112;51.976;5.660;2023-06-24T06:03:50;8.18;;;4.00;;
34900;SDS011;21112;51.976;5.660;2023-06-24T06:06:18;10.43;;;4.72;;
34900;SDS011;21112;51.976;5.660;2023-06-24T06:08:45;9.48;;;4.22;;
34900;SDS011;21112;51.976;5.660;2023-06-24T06:11:11;15.93;;;5.70;;
34900;SDS011;21112;51.976;5.660;2023-06-24T06:13:38;10.55;;;4.55;;
34900;SDS011;21112;51.976;5.660;2023-06-24T06:16:07;10.50;;;5.15;;
34900;SDS011;21112;51.976;5.660;2023-06-24T06:18:34;9.25;;;4.10;;
34900;SDS011;21112;51.976;5.660;2023-06-24T06:21:00;10.18;;;4.07;;
34900;SDS011;21112;51.976;5.660;2023-06-24T06:23:28;9.00;;;4.18;;
34900;SDS011;21112;51.976;5.660;2023-06-24T06:25:55;9.48;;;3.20;;
34900;SDS011;21112;51.976;5.660;2023-06-24T06:28:21;8.15;;;3.15;;
34900;SDS011;21112;51.976;5.660;2023-06-24T06:30:48;7.00;;;3.40;;
34900;SDS011;21112;51.976;5.660;2023-06-24T06:33:17;5.88;;;3.17;;
34900;SDS011;21112;51.976;5.660;2023-06-24T06:35:44;9.82;;;4.10;;
34900;SDS011;21112;51.976;5.660;2023-06-24T06:38:11;11.10;;;4.85;;
34900;SDS011;21112;51.976;5.660;2023-06-24T06:40:39;10.30;;;4.85;;
34900;SDS011;21112;51.976;5.660;2023-06-24T06:43:05;12.05;;;4.40;;
34900;SDS011;21112;51.976;5.660;2023-06-24T06:45:32;9.45;;;4.47;;
34900;SDS011;21112;51.976;5.660;2023-06-24T06:47:58;9.48;;;4.53;;
34900;SDS011;21112;51.976;5.660;2023-06-24T06:50:25;7.30;;;3.45;;
34900;SDS011;21112;51.976;5.660;2023-06-24T06:52:54;11.63;;;5.53;;
34900;SDS011;21112;51.976;5.660;2023-06-24T06:55:20;9.98;;;4.05;;
34900;SDS011;21112;51.976;5.660;2023-06-24T06:57:48;9.45;;;3.78;;
34900;SDS011;21112;51.976;5.660;2023-06-24T07:00:15;11.75;;;4.43;;
34900;SDS011;21112;51.976;5.660;2023-06-24T07:02:41;7.78;;;3.63;;
34900;SDS011;21112;51.976;5.660;2023-06-24T07:05:08;8.15;;;4.00;;
34900;SDS011;21112;51.976;5.660;2023-06-24T07:07:36;11.05;;;4.25;;
34900;SDS011;21112;51.976;5.660;2023-06-24T07:10:03;8.82;;;3.45;;
34900;SDS011;21112;51.976;5.660;2023-06-24T07:12:30;11.73;;;4.88;;
34900;SDS011;21112;51.976;5.660;2023-06-24T07:14:58;7.65;;;3.20;;
34900;SDS011;21112;51.976;5.660;2023-06-24T07:17:24;8.15;;;3.17;;
34900;SDS011;21112;51.976;5.660;2023-06-24T07:19:51;9.57;;;4.28;;
34900;SDS011;21112;51.976;5.660;2023-06-24T07:22:17;5.63;;;2.42;;
34900;SDS011;21112;51.976;5.660;2023-06-24T07:24:44;6.10;;;2.50;;
34900;SDS011;21112;51.976;5.660;2023-06-24T07:27:10;10.05;;;4.88;;
34900;SDS011;21112;51.976;5.660;2023-06-24T07:29:37;6.05;;;2.78;;
34900;SDS011;21112;51.976;5.660;2023-06-24T07:32:05;5.65;;;2.40;;
34900;SDS011;21112;51.976;5.660;2023-06-24T07:34:32;8.35;;;3.25;;
34900;SDS011;21112;51.976;5.660;2023-06-24T07:36:59;6.55;;;2.70;;
34900;SDS011;21112;51.976;5.660;2023-06-24T07:39:25;6.80;;;3.13;;
34900;SDS011;21112;51.976;5.660;2023-06-24T07:41:52;7.35;;;3.22;;
34900;SDS011;21112;51.976;5.660;2023-06-24T07:44:18;7.78;;;4.00;;
34900;SDS011;21112;51.976;5.660;2023-06-24T07:46:45;8.75;;;3.50;;
34900;SDS011;21112;51.976;5.660;2023-06-24T07:49:13;9.18;;;3.30;;
34900;SDS011;21112;51.976;5.660;2023-06-24T07:51:40;6.32;;;2.83;;
34900;SDS011;21112;51.976;5.660;2023-06-24T07:54:06;6.63;;;2.78;;
34900;SDS011;21112;51.976;5.660;2023-06-24T07:56:33;10.00;;;3.63;;
34900;SDS011;21112;51.976;5.660;2023-06-24T07:59:00;7.00;;;3.30;;
34900;SDS011;21112;51.976;5.660;2023-06-24T08:01:27;8.50;;;3.47;;
34900;SDS011;21112;51.976;5.660;2023-06-24T08:03:53;6.53;;;2.47;;
34900;SDS011;21112;51.976;5.660;2023-06-24T08:06:21;6.90;;;2.65;;
34900;SDS011;21112;51.976;5.660;2023-06-24T08:08:48;5.78;;;2.40;;
34900;SDS011;21112;51.976;5.660;2023-06-24T08:11:15;4.72;;;2.30;;
34900;SDS011;21112;51.976;5.660;2023-06-24T08:13:41;7.82;;;2.65;;
34900;SDS011;21112;51.976;5.660;2023-06-24T08:16:08;5.45;;;2.60;;
34900;SDS011;21112;51.976;5.660;2023-06-24T08:18:34;6.95;;;3.00;;
34900;SDS011;21112;51.976;5.660;2023-06-24T08:21:01;6.43;;;3.05;;
34900;SDS011;21112;51.976;5.660;2023-06-24T08:23:29;5.65;;;2.67;;
34900;SDS011;21112;51.976;5.660;2023-06-24T08:25:55;7.07;;;3.30;;
34900;SDS011;21112;51.976;5.660;2023-06-24T08:28:22;6.40;;;3.15;;
34900;SDS011;21112;51.976;5.660;2023-06-24T08:30:48;4.60;;;2.20;;
34900;SDS011;21112;51.976;5.660;2023-06-24T08:33:16;7.30;;;3.40;;
34900;SDS011;21112;51.976;5.660;2023-06-24T08:35:42;7.15;;;2.80;;
34900;SDS011;21112;51.976;5.660;2023-06-24T08:38:09;9.57;;;3.22;;
34900;SDS011;21112;51.976;5.660;2023-06-24T08:40:40;8.38;;;2.88;;
34900;SDS011;21112;51.976;5.660;2023-06-24T08:43:08;6.88;;;2.40;;
34900;SDS011;21112;51.976;5.660;2023-06-24T08:45:35;5.47;;;2.10;;
34900;SDS011;21112;51.976;5.660;2023-06-24T08:48:02;6.63;;;2.60;;
34900;SDS011;21112;51.976;5.660;2023-06-24T08:50:31;4.63;;;2.33;;
34900;SDS011;21112;51.976;5.660;2023-06-24T08:52:59;7.90;;;3.42;;
34900;SDS011;21112;51.976;5.660;2023-06-24T08:55:27;8.23;;;3.63;;
34900;SDS011;21112;51.976;5.660;2023-06-24T08:57:55;8.15;;;3.05;;
34900;SDS011;21112;51.976;5.660;2023-06-24T09:00:22;6.95;;;2.80;;
34900;SDS011;21112;51.976;5.660;2023-06-24T09:02:49;6.67;;;2.63;;
34900;SDS011;21112;51.976;5.660;2023-06-24T09:05:16;12.25;;;2.90;;
34900;SDS011;21112;51.976;5.660;2023-06-24T09:07:42;5.43;;;2.42;;
34900;SDS011;21112;51.976;5.660;2023-06-24T09:10:10;8.40;;;3.75;;
34900;SDS011;21112;51.976;5.660;2023-06-24T09:12:36;11.20;;;4.65;;
34900;SDS011;21112;51.976;5.660;2023-06-24T09:15:05;8.00;;;4.45;;
34900;SDS011;21112;51.976;5.660;2023-06-24T09:17:31;6.32;;;2.72;;
34900;SDS011;21112;51.976;5.660;2023-06-24T09:20:20;6.30;;;2.63;;
34900;SDS011;21112;51.976;5.660;2023-06-24T09:22:47;7.90;;;2.78;;
34900;SDS011;21112;51.976;5.660;2023-06-24T09:25:16;7.55;;;3.05;;
34900;SDS011;21112;51.976;5.660;2023-06-24T09:27:47;8.35;;;3.03;;
34900;SDS011;21112;51.976;5.660;2023-06-24T09:30:18;7.55;;;3.17;;
34900;SDS011;21112;51.976;5.660;2023-06-24T09:32:45;7.57;;;3.45;;
34900;SDS011;21112;51.976;5.660;2023-06-24T09:35:12;6.50;;;2.55;;
34900;SDS011;21112;51.976;5.660;2023-06-24T09:37:38;7.20;;;3.65;;
34900;SDS011;21112;51.976;5.660;2023-06-24T09:40:05;7.03;;;3.08;;
34900;SDS011;21112;51.976;5.660;2023-06-24T09:42:34;10.38;;;3.70;;
34900;SDS011;21112;51.976;5.660;2023-06-24T09:45:04;6.50;;;3.15;;
34900;SDS011;21112;51.976;5.660;2023-06-24T09:47:32;9.48;;;4.03;;
34900;SDS011;21112;51.976;5.660;2023-06-24T09:49:58;9.10;;;3.30;;
34900;SDS011;21112;51.976;5.660;2023-06-24T09:52:27;6.68;;;2.78;;
34900;SDS011;21112;51.976;5.660;2023-06-24T09:54:56;8.85;;;3.65;;
34900;SDS011;21112;51.976;5.660;2023-06-24T09:57:25;7.22;;;3.50;;
34900;SDS011;21112;51.976;5.660;2023-06-24T09:59:53;9.45;;;3.33;;
34900;SDS011;21112;51.976;5.660;2023-06-24T10:02:20;7.32;;;3.55;;
34900;SDS011;21112;51.976;5.660;2023-06-24T10:04:48;8.45;;;3.55;;
34900;SDS011;21112;51.976;5.660;2023-06-24T10:07:15;7.55;;;2.90;;
34900;SDS011;21112;51.976;5.660;2023-06-24T10:09:42;6.17;;;2.90;;
34900;SDS011;21112;51.976;5.660;2023-06-24T10:12:09;5.40;;;2.42;;
34900;SDS011;21112;51.976;5.660;2023-06-24T10:14:36;7.65;;;2.90;;
34900;SDS011;21112;51.976;5.660;2023-06-24T10:17:03;11.02;;;3.42;;
34900;SDS011;21112;51.976;5.660;2023-06-24T10:19:29;7.25;;;3.47;;
34900;SDS011;21112;51.976;5.660;2023-06-24T10:21:59;12.75;;;4.22;;
34900;SDS011;21112;51.976;5.660;2023-06-24T10:24:28;7.03;;;3.30;;
34900;SDS011;21112;51.976;5.660;2023-06-24T10:27:00;5.47;;;2.83;;
34900;SDS011;21112;51.976;5.660;2023-06-24T10:29:33;6.90;;;3.33;;
34900;SDS011;21112;51.976;5.660;2023-06-24T10:32:03;7.10;;;3.47;;
34900;SDS011;21112;51.976;5.660;2023-06-24T10:34:30;9.07;;;3.88;;
34900;SDS011;21112;51.976;5.660;2023-06-24T10:36:59;5.72;;;2.80;;
34900;SDS011;21112;51.976;5.660;2023-06-24T10:39:36;7.00;;;3.05;;
34900;SDS011;21112;51.976;5.660;2023-06-24T10:44:49;8.48;;;4.28;;
34900;SDS011;21112;51.976;5.660;2023-06-24T10:47:26;8.43;;;3.35;;
34900;SDS011;21112;51.976;5.660;2023-06-24T10:49:53;10.95;;;5.70;;
34900;SDS011;21112;51.976;5.660;2023-06-24T10:52:22;6.18;;;2.75;;
34900;SDS011;21112;51.976;5.660;2023-06-24T10:54:49;13.57;;;3.17;;
34900;SDS011;21112;51.976;5.660;2023-06-24T10:57:24;6.20;;;2.70;;
34900;SDS011;21112;51.976;5.660;2023-06-24T10:59:56;6.40;;;2.90;;
34900;SDS011;21112;51.976;5.660;2023-06-24T11:02:23;7.00;;;3.15;;
34900;SDS011;21112;51.976;5.660;2023-06-24T11:04:50;8.90;;;3.73;;
34900;SDS011;21112;51.976;5.660;2023-06-24T11:07:17;7.17;;;3.40;;
34900;SDS011;21112;51.976;5.660;2023-06-24T11:09:49;9.50;;;3.47;;
34900;SDS011;21112;51.976;5.660;2023-06-24T11:12:16;9.68;;;3.95;;
34900;SDS011;21112;51.976;5.660;2023-06-24T11:14:42;8.13;;;3.17;;
34900;SDS011;21112;51.976;5.660;2023-06-24T11:17:09;7.70;;;3.45;;
34900;SDS011;21112;51.976;5.660;2023-06-24T11:19:36;6.38;;;2.88;;
34900;SDS011;21112;51.976;5.660;2023-06-24T11:22:04;5.90;;;2.90;;
34900;SDS011;21112;51.976;5.660;2023-06-24T11:24:31;9.77;;;4.30;;
34900;SDS011;21112;51.976;5.660;2023-06-24T11:26:59;7.03;;;3.50;;
34900;SDS011;21112;51.976;5.660;2023-06-24T11:29:28;8.18;;;3.78;;
34900;SDS011;21112;51.976;5.660;2023-06-24T11:31:55;7.35;;;3.22;;
34900;SDS011;21112;51.976;5.660;2023-06-24T11:34:21;5.60;;;2.80;;
34900;SDS011;21112;51.976;5.660;2023-06-24T11:36:48;11.70;;;4.28;;
34900;SDS011;21112;51.976;5.660;2023-06-24T11:39:21;8.63;;;3.97;;
34900;SDS011;21112;51.976;5.660;2023-06-24T11:41:48;12.25;;;4.55;;
34900;SDS011;21112;51.976;5.660;2023-06-24T11:44:18;8.32;;;3.58;;
34900;SDS011;21112;51.976;5.660;2023-06-24T11:46:45;8.00;;;3.65;;
34900;SDS011;21112;51.976;5.660;2023-06-24T11:49:11;8.40;;;3.53;;
34900;SDS011;21112;51.976;5.660;2023-06-24T11:51:45;8.27;;;4.20;;
34900;SDS011;21112;51.976;5.660;2023-06-24T11:54:12;6.85;;;3.60;;
34900;SDS011;21112;51.976;5.660;2023-06-24T11:56:39;11.48;;;3.92;;
34900;SDS011;21112;51.976;5.660;2023-06-24T11:59:06;9.38;;;4.57;;
34900;SDS011;21112;51.976;5.660;2023-06-24T12:01:43;7.38;;;2.78;;
34900;SDS011;21112;51.976;5.660;2023-06-24T12:04:10;9.02;;;3.83;;
34900;SDS011;21112;51.976;5.660;2023-06-24T12:06:38;6.35;;;2.97;;
34900;SDS011;21112;51.976;5.660;2023-06-24T12:09:04;5.90;;;2.75;;
34900;SDS011;21112;51.976;5.660;2023-06-24T12:11:31;8.55;;;3.95;;
34900;SDS011;21112;51.976;5.660;2023-06-24T12:13:57;6.78;;;3.33;;
34900;SDS011;21112;51.976;5.660;2023-06-24T12:16:24;6.38;;;3.33;;
34900;SDS011;21112;51.976;5.660;2023-06-24T12:18:53;11.10;;;5.10;;
34900;SDS011;21112;51.976;5.660;2023-06-24T12:23:45;9.30;;;3.60;;
34900;SDS011;21112;51.976;5.660;2023-06-24T12:26:12;6.55;;;3.03;;
34900;SDS011;21112;51.976;5.660;2023-06-24T12:28:39;7.13;;;2.90;;
34900;SDS011;21112;51.976;5.660;2023-06-24T12:31:05;5.68;;;2.83;;
34900;SDS011;21112;51.976;5.660;2023-06-24T12:33:33;9.77;;;3.33;;
34900;SDS011;21112;51.976;5.660;2023-06-24T12:36:01;9.18;;;3.38;;
34900;SDS011;21112;51.976;5.660;2023-06-24T12:38:28;10.35;;;2.72;;
34900;SDS011;21112;51.976;5.660;2023-06-24T12:40:56;6.13;;;2.55;;
34900;SDS011;21112;51.976;5.660;2023-06-24T12:43:23;7.15;;;3.50;;
34900;SDS011;21112;51.976;5.660;2023-06-24T12:45:50;4.28;;;2.50;;
34900;SDS011;21112;51.976;5.660;2023-06-24T12:48:17;7.28;;;3.35;;
34900;SDS011;21112;51.976;5.660;2023-06-24T12:50:46;6.93;;;2.97;;
34900;SDS011;21112;51.976;5.660;2023-06-24T12:53:21;6.80;;;3.15;;
34900;SDS011;21112;51.976;5.660;2023-06-24T12:55:48;6.40;;;2.67;;
34900;SDS011;21112;51.976;5.660;2023-06-24T12:58:18;7.50;;;3.47;;
34900;SDS011;21112;51.976;5.660;2023-06-24T13:00:45;5.93;;;2.63;;
34900;SDS011;21112;51.976;5.660;2023-06-24T13:03:11;6.07;;;3.00;;
34900;SDS011;21112;51.976;5.660;2023-06-24T13:05:38;6.20;;;3.00;;
34900;SDS011;21112;51.976;5.660;2023-06-24T13:08:04;10.25;;;3.63;;
34900;SDS011;21112;51.976;5.660;2023-06-24T13:10:32;6.10;;;2.90;;
34900;SDS011;21112;51.976;5.660;2023-06-24T13:12:59;8.38;;;3.35;;
34900;SDS011;21112;51.976;5.660;2023-06-24T13:15:26;7.80;;;2.90;;
34900;SDS011;21112;51.976;5.660;2023-06-24T13:17:52;5.32;;;2.60;;
34900;SDS011;21112;51.976;5.660;2023-06-24T13:20:21;6.68;;;3.42;;
34900;SDS011;21112;51.976;5.660;2023-06-24T13:22:47;7.38;;;3.53;;
34900;SDS011;21112;51.976;5.660;2023-06-24T13:25:14;8.18;;;3.75;;
34900;SDS011;21112;51.976;5.660;2023-06-24T13:27:45;6.22;;;2.72;;
34900;SDS011;21112;51.976;5.660;2023-06-24T13:32:40;4.75;;;2.80;;
34900;SDS011;21112;51.976;5.660;2023-06-24T13:35:09;9.68;;;2.92;;
34900;SDS011;21112;51.976;5.660;2023-06-24T13:37:36;4.97;;;2.40;;
34900;SDS011;21112;51.976;5.660;2023-06-24T13:40:04;6.07;;;2.55;;
34900;SDS011;21112;51.976;5.660;2023-06-24T13:42:31;5.90;;;2.80;;
34900;SDS011;21112;51.976;5.660;2023-06-24T13:44:59;6.15;;;2.40;;
34900;SDS011;21112;51.976;5.660;2023-06-24T13:49:51;3.95;;;2.40;;
34900;SDS011;21112;51.976;5.660;2023-06-24T13:52:18;9.15;;;3.13;;
34900;SDS011;21112;51.976;5.660;2023-06-24T13:54:46;7.30;;;2.70;;
34900;SDS011;21112;51.976;5.660;2023-06-24T13:57:12;5.50;;;2.58;;
34900;SDS011;21112;51.976;5.660;2023-06-24T13:59:41;8.07;;;3.38;;
34900;SDS011;21112;51.976;5.660;2023-06-24T14:02:11;7.28;;;2.65;;
34900;SDS011;21112;51.976;5.660;2023-06-24T14:04:38;4.97;;;2.50;;
34900;SDS011;21112;51.976;5.660;2023-06-24T14:07:05;5.18;;;2.20;;
34900;SDS011;21112;51.976;5.660;2023-06-24T14:09:31;6.65;;;2.95;;
34900;SDS011;21112;51.976;5.660;2023-06-24T14:11:58;6.75;;;3.35;;
34900;SDS011;21112;51.976;5.660;2023-06-24T14:14:25;5.80;;;2.47;;
34900;SDS011;21112;51.976;5.660;2023-06-24T14:16:51;7.30;;;2.95;;
34900;SDS011;21112;51.976;5.660;2023-06-24T14:19:19;6.50;;;3.22;;
34900;SDS011;21112;51.976;5.660;2023-06-24T14:21:46;4.90;;;2.40;;
34900;SDS011;21112;51.976;5.660;2023-06-24T14:24:12;7.20;;;3.08;;
34900;SDS011;21112;51.976;5.660;2023-06-24T14:26:39;6.00;;;2.97;;
34900;SDS011;21112;51.976;5.660;2023-06-24T14:29:06;6.70;;;2.75;;
34900;SDS011;21112;51.976;5.660;2023-06-24T14:31:33;5.40;;;2.70;;
34900;SDS011;21112;51.976;5.660;2023-06-24T14:34:00;5.55;;;2.80;;
34900;SDS011;21112;51.976;5.660;2023-06-24T14:36:28;6.28;;;2.92;;
34900;SDS011;21112;51.976;5.660;2023-06-24T14:38:54;5.38;;;2.80;;
34900;SDS011;21112;51.976;5.660;2023-06-24T14:41:21;4.68;;;2.42;;
34900;SDS011;21112;51.976;5.660;2023-06-24T14:43:47;5.90;;;2.88;;
34900;SDS011;21112;51.976;5.660;2023-06-24T14:46:14;4.50;;;2.55;;
34900;SDS011;21112;51.976;5.660;2023-06-24T14:48:40;8.18;;;3.58;;
34900;SDS011;21112;51.976;5.660;2023-06-24T14:51:07;5.97;;;2.72;;
34900;SDS011;21112;51.976;5.660;2023-06-24T14:53:35;8.15;;;3.33;;
34900;SDS011;21112;51.976;5.660;2023-06-24T14:56:01;6.43;;;2.85;;
34900;SDS011;21112;51.976;5.660;2023-06-24T14:58:31;4.13;;;2.08;;
34900;SDS011;21112;51.976;5.660;2023-06-24T15:00:57;7.18;;;3.60;;